createdAt,value
2023-05-25T00:00:02.449Z,95255.00
2023-05-25T00:01:03.492Z,95251.00
2023-05-25T00:02:02.533Z,95249.00
2023-05-25T00:03:02.745Z,95253.00
2023-05-25T00:04:02.633Z,95253.00
2023-05-25T00:05:02.617Z,95253.00
2023-05-25T00:06:02.676Z,95253.00
2023-05-25T00:07:02.709Z,95253.00
2023-05-25T00:08:02.747Z,95251.00
2023-05-25T00:09:02.792Z,95253.00
2023-05-25T00:10:02.823Z,95251.00
2023-05-25T00:11:02.886Z,95253.00
2023-05-25T00:12:02.909Z,95253.00
2023-05-25T00:13:02.976Z,95251.00
2023-05-25T00:14:02.984Z,95249.00
2023-05-25T00:15:03.020Z,95245.00
2023-05-25T00:16:03.079Z,95245.00
2023-05-25T00:17:03.175Z,95241.00
2023-05-25T00:18:03.178Z,95239.00
2023-05-25T00:19:03.209Z,95241.00
2023-05-25T00:20:03.270Z,95241.00
2023-05-25T00:21:03.306Z,95237.00
2023-05-25T00:22:03.337Z,95239.00
2023-05-25T00:23:03.371Z,95239.00
2023-05-25T00:24:03.401Z,95239.00
2023-05-25T00:25:03.461Z,95239.00
2023-05-25T00:26:03.499Z,95239.00
2023-05-25T00:27:03.521Z,95239.00
2023-05-25T00:28:03.556Z,95239.00
2023-05-25T00:29:03.586Z,95237.00
2023-05-25T00:30:03.648Z,95243.00
2023-05-25T00:31:03.756Z,95245.00
2023-05-25T00:32:03.710Z,95247.00
2023-05-25T00:33:03.787Z,95245.00
2023-05-25T00:34:03.776Z,95247.00
2023-05-25T00:35:03.824Z,95251.00
2023-05-25T00:36:03.843Z,95249.00
2023-05-25T00:37:03.876Z,95247.00
2023-05-25T00:38:03.928Z,95247.00
2023-05-25T00:39:03.971Z,95249.00
2023-05-25T00:40:03.985Z,95249.00
2023-05-25T00:41:04.020Z,95249.00
2023-05-25T00:42:04.039Z,95249.00
2023-05-25T00:43:04.106Z,95247.00
2023-05-25T00:44:04.171Z,95247.00
2023-05-25T00:45:04.179Z,95251.00
2023-05-25T00:46:04.255Z,95253.00
2023-05-25T00:47:04.234Z,95251.00
2023-05-25T00:48:04.343Z,95253.00
2023-05-25T00:49:04.315Z,95253.00
2023-05-25T00:50:04.345Z,95253.00
2023-05-25T00:51:04.364Z,95249.00
2023-05-25T00:52:04.437Z,95249.00
2023-05-25T00:53:04.466Z,95251.00
2023-05-25T00:54:04.476Z,95251.00
2023-05-25T00:55:04.507Z,95251.00
2023-05-25T00:56:04.545Z,95249.00
2023-05-25T00:57:04.588Z,95251.00
2023-05-25T00:58:04.633Z,95249.00
2023-05-25T00:59:04.673Z,95245.00
2023-05-25T01:00:04.664Z,95245.00
2023-05-25T01:01:04.710Z,95245.00
2023-05-25T01:02:04.843Z,95245.00
2023-05-25T01:03:04.925Z,95247.00
2023-05-25T01:04:04.863Z,95249.00
2023-05-25T01:05:04.892Z,95247.00
2023-05-25T01:06:04.881Z,95243.00
2023-05-25T01:07:04.963Z,95245.00
2023-05-25T01:08:04.971Z,95241.00
2023-05-25T01:09:05.004Z,95245.00
2023-05-25T01:10:05.052Z,95247.00
2023-05-25T01:11:05.076Z,95249.00
2023-05-25T01:12:05.154Z,95247.00
2023-05-25T01:13:05.194Z,95249.00
2023-05-25T01:14:05.212Z,95253.00
2023-05-25T01:15:05.246Z,95249.00
2023-05-25T01:16:05.319Z,95251.00
2023-05-25T01:17:05.344Z,95251.00
2023-05-25T01:18:05.418Z,95255.00
2023-05-25T01:19:05.432Z,95255.00
2023-05-25T01:20:11.369Z,95255.00
2023-05-25T01:21:06.458Z,95255.00
2023-05-25T01:22:05.462Z,95259.00
2023-05-25T01:23:05.458Z,95259.00
2023-05-25T01:24:05.449Z,95259.00
2023-05-25T01:25:05.444Z,95261.00
2023-05-25T01:26:05.401Z,95259.00
2023-05-25T01:27:05.383Z,95263.00
2023-05-25T01:28:05.393Z,95263.00
2023-05-25T01:29:05.376Z,95264.00
2023-05-25T01:30:05.389Z,95268.00
2023-05-25T01:31:05.374Z,95264.00
2023-05-25T01:32:05.401Z,95261.00
2023-05-25T01:33:05.471Z,95261.00
2023-05-25T01:34:05.436Z,95259.00
2023-05-25T01:35:05.482Z,95259.00
2023-05-25T01:36:05.525Z,95257.00
2023-05-25T01:37:05.541Z,95253.00
2023-05-25T01:38:05.643Z,95253.00
2023-05-25T01:39:05.672Z,95251.00
2023-05-25T01:40:05.695Z,95251.00
2023-05-25T01:41:05.733Z,95251.00
2023-05-25T01:42:05.777Z,95251.00
2023-05-25T01:43:05.850Z,95253.00
2023-05-25T01:44:05.847Z,95253.00
2023-05-25T01:45:05.892Z,95253.00
2023-05-25T01:46:05.971Z,95257.00
2023-05-25T01:47:05.980Z,95255.00
2023-05-25T01:48:06.100Z,95261.00
2023-05-25T01:49:06.065Z,95259.00
2023-05-25T01:50:06.115Z,95259.00
2023-05-25T01:51:06.155Z,95261.00
2023-05-25T01:52:06.218Z,95263.00
2023-05-25T01:53:06.244Z,95263.00
2023-05-25T01:54:06.300Z,95268.00
2023-05-25T01:55:06.320Z,95266.00
2023-05-25T01:56:06.376Z,95264.00
2023-05-25T01:57:06.428Z,95266.00
2023-05-25T01:58:06.446Z,95266.00
2023-05-25T01:59:06.501Z,95263.00
2023-05-25T02:00:06.560Z,95263.00
2023-05-25T02:01:06.659Z,95264.00
2023-05-25T02:02:06.668Z,95264.00
2023-05-25T02:03:06.767Z,95266.00
2023-05-25T02:04:06.791Z,95266.00
2023-05-25T02:05:06.786Z,95266.00
2023-05-25T02:06:06.871Z,95264.00
2023-05-25T02:07:06.874Z,95266.00
2023-05-25T02:08:06.947Z,95266.00
2023-05-25T02:09:07.002Z,95266.00
2023-05-25T02:10:07.106Z,95266.00
2023-05-25T02:11:07.099Z,95266.00
2023-05-25T02:12:07.138Z,95264.00
2023-05-25T02:13:07.198Z,95264.00
2023-05-25T02:14:07.231Z,95264.00
2023-05-25T02:15:07.304Z,95263.00
2023-05-25T02:16:07.357Z,95264.00
2023-05-25T02:17:07.388Z,95264.00
2023-05-25T02:18:07.463Z,95264.00
2023-05-25T02:19:07.508Z,95266.00
2023-05-25T02:20:07.560Z,95266.00
2023-05-25T02:21:07.596Z,95264.00
2023-05-25T02:22:07.629Z,95263.00
2023-05-25T02:23:07.703Z,95268.00
2023-05-25T02:24:07.736Z,95268.00
2023-05-25T02:25:07.772Z,95270.00
2023-05-25T02:26:07.821Z,95270.00
2023-05-25T02:27:07.865Z,95274.00
2023-05-25T02:28:07.919Z,95278.00
2023-05-25T02:29:07.931Z,95278.00
2023-05-25T02:30:08.003Z,95278.00
2023-05-25T02:31:08.073Z,95280.00
2023-05-25T02:32:08.098Z,95280.00
2023-05-25T02:33:08.159Z,95280.00
2023-05-25T02:34:08.156Z,95278.00
2023-05-25T02:35:08.250Z,95276.00
2023-05-25T02:36:08.296Z,95278.00
2023-05-25T02:37:08.428Z,95282.00
2023-05-25T02:38:08.367Z,95278.00
2023-05-25T02:39:08.415Z,95280.00
2023-05-25T02:40:08.434Z,95278.00
2023-05-25T02:41:08.494Z,95280.00
2023-05-25T02:42:08.553Z,95282.00
2023-05-25T02:43:08.594Z,95282.00
2023-05-25T02:44:08.641Z,95282.00
2023-05-25T02:45:08.691Z,95282.00
2023-05-25T02:46:08.754Z,95282.00
2023-05-25T02:47:08.955Z,95286.00
2023-05-25T02:48:08.847Z,95286.00
2023-05-25T02:49:08.857Z,95284.00
2023-05-25T02:50:08.917Z,95282.00
2023-05-25T02:51:08.995Z,95282.00
2023-05-25T02:52:09.001Z,95284.00
2023-05-25T02:53:09.068Z,95288.00
2023-05-25T02:54:09.090Z,95288.00
2023-05-25T02:55:09.122Z,95290.00
2023-05-25T02:56:09.152Z,95290.00
2023-05-25T02:57:09.180Z,95292.00
2023-05-25T02:58:09.231Z,95292.00
2023-05-25T02:59:09.270Z,95292.00
2023-05-25T03:00:09.312Z,95296.00
2023-05-25T03:01:09.403Z,95290.00
2023-05-25T03:02:09.413Z,95292.00
2023-05-25T03:03:09.593Z,95292.00
2023-05-25T03:04:09.541Z,95290.00
2023-05-25T03:05:09.560Z,95294.00
2023-05-25T03:06:09.611Z,95292.00
2023-05-25T03:07:09.608Z,95296.00
2023-05-25T03:08:09.714Z,95302.00
2023-05-25T03:09:09.791Z,95300.00
2023-05-25T03:10:09.792Z,95298.00
2023-05-25T03:11:09.807Z,95300.00
2023-05-25T03:12:09.885Z,95298.00
2023-05-25T03:13:09.932Z,95300.00
2023-05-25T03:14:09.959Z,95294.00
2023-05-25T03:15:10.008Z,95292.00
2023-05-25T03:16:10.060Z,95288.00
2023-05-25T03:17:10.094Z,95298.00
2023-05-25T03:18:10.241Z,95294.00
2023-05-25T03:19:10.200Z,95292.00
2023-05-25T03:20:10.282Z,95292.00
2023-05-25T03:21:10.285Z,95292.00
2023-05-25T03:22:10.332Z,95294.00
2023-05-25T03:23:10.370Z,95294.00
2023-05-25T03:24:10.421Z,95300.00
2023-05-25T03:25:10.474Z,95304.00
2023-05-25T03:26:10.506Z,95306.00
2023-05-25T03:27:10.621Z,95308.00
2023-05-25T03:28:10.578Z,95310.00
2023-05-25T03:29:10.643Z,95310.00
2023-05-25T03:30:10.680Z,95310.00
2023-05-25T03:31:10.740Z,95311.00
2023-05-25T03:32:10.852Z,95311.00
2023-05-25T03:33:10.937Z,95311.00
2023-05-25T03:34:10.871Z,95313.00
2023-05-25T03:35:10.922Z,95315.00
2023-05-25T03:36:10.980Z,95317.00
2023-05-25T03:37:11.038Z,95319.00
2023-05-25T03:38:11.075Z,95317.00
2023-05-25T03:39:11.115Z,95319.00
2023-05-25T03:40:11.156Z,95319.00
2023-05-25T03:41:11.206Z,95319.00
2023-05-25T03:42:11.255Z,95319.00
2023-05-25T03:43:11.306Z,95319.00
2023-05-25T03:44:11.353Z,95319.00
2023-05-25T03:45:11.386Z,95319.00
2023-05-25T03:46:11.482Z,95321.00
2023-05-25T03:47:11.475Z,95317.00
2023-05-25T03:48:11.536Z,95319.00
2023-05-25T03:49:11.576Z,95313.00
2023-05-25T03:50:11.597Z,95315.00
2023-05-25T03:51:11.647Z,95315.00
2023-05-25T03:52:11.697Z,95317.00
2023-05-25T03:53:11.763Z,95315.00
2023-05-25T03:54:11.826Z,95317.00
2023-05-25T03:55:11.845Z,95317.00
2023-05-25T03:56:11.872Z,95317.00
2023-05-25T03:57:11.962Z,95321.00
2023-05-25T03:58:11.972Z,95323.00
2023-05-25T03:59:12.028Z,95325.00
2023-05-25T04:00:12.098Z,95325.00
2023-05-25T04:01:12.115Z,95325.00
2023-05-25T04:02:12.192Z,95325.00
2023-05-25T04:03:12.300Z,95323.00
2023-05-25T04:04:12.310Z,95325.00
2023-05-25T04:05:12.327Z,95323.00
2023-05-25T04:06:12.373Z,95323.00
2023-05-25T04:07:12.436Z,95325.00
2023-05-25T04:08:12.478Z,95327.00
2023-05-25T04:09:12.529Z,95329.00
2023-05-25T04:10:12.590Z,95329.00
2023-05-25T04:11:12.641Z,95329.00
2023-05-25T04:12:12.667Z,95329.00
2023-05-25T04:13:12.754Z,95333.00
2023-05-25T04:14:12.794Z,95331.00
2023-05-25T04:15:12.847Z,95329.00
2023-05-25T04:16:12.902Z,95331.00
2023-05-25T04:17:12.941Z,95335.00
2023-05-25T04:18:13.071Z,95337.00
2023-05-25T04:19:13.071Z,95337.00
2023-05-25T04:20:13.121Z,95341.00
2023-05-25T04:21:13.149Z,95341.00
2023-05-25T04:22:13.191Z,95345.00
2023-05-25T04:23:13.533Z,95341.00
2023-05-25T04:24:13.278Z,95343.00
2023-05-25T04:25:13.328Z,95347.00
2023-05-25T04:26:13.398Z,95345.00
2023-05-25T04:27:13.435Z,95345.00
2023-05-25T04:28:13.472Z,95347.00
2023-05-25T04:29:13.552Z,95347.00
2023-05-25T04:30:13.609Z,95350.00
2023-05-25T04:31:13.716Z,95352.00
2023-05-25T04:32:13.673Z,95347.00
2023-05-25T04:33:13.727Z,95347.00
2023-05-25T04:34:13.751Z,95349.00
2023-05-25T04:35:13.817Z,95354.00
2023-05-25T04:36:13.906Z,95354.00
2023-05-25T04:37:13.929Z,95356.00
2023-05-25T04:38:14.025Z,95354.00
2023-05-25T04:39:14.028Z,95354.00
2023-05-25T04:40:14.253Z,95354.00
2023-05-25T04:41:14.155Z,95360.00
2023-05-25T04:42:14.192Z,95362.00
2023-05-25T04:43:14.263Z,95364.00
2023-05-25T04:44:14.341Z,95364.00
2023-05-25T04:45:14.389Z,95364.00
2023-05-25T04:46:14.463Z,95362.00
2023-05-25T04:47:14.477Z,95362.00
2023-05-25T04:48:14.519Z,95362.00
2023-05-25T04:49:14.545Z,95362.00
2023-05-25T04:50:14.610Z,95366.00
2023-05-25T04:51:14.691Z,95364.00
2023-05-25T04:52:14.700Z,95364.00
2023-05-25T04:53:14.770Z,95364.00
2023-05-25T04:54:14.780Z,95364.00
2023-05-25T04:55:14.825Z,95368.00
2023-05-25T04:56:14.859Z,95370.00
2023-05-25T04:57:14.908Z,95372.00
2023-05-25T04:58:14.981Z,95370.00
2023-05-25T04:59:15.021Z,95368.00
2023-05-25T05:00:15.085Z,95370.00
2023-05-25T05:01:22.198Z,95370.00
2023-05-25T05:02:15.127Z,95374.00
2023-05-25T05:03:15.226Z,95374.00
2023-05-25T05:04:15.108Z,95380.00
2023-05-25T05:05:15.128Z,95376.00
2023-05-25T05:06:15.078Z,95380.00
2023-05-25T05:07:15.094Z,95378.00
2023-05-25T05:08:15.093Z,95380.00
2023-05-25T05:09:15.075Z,95382.00
2023-05-25T05:10:15.045Z,95384.00
2023-05-25T05:11:15.087Z,95382.00
2023-05-25T05:12:15.072Z,95384.00
2023-05-25T05:13:15.068Z,95384.00
2023-05-25T05:14:15.054Z,95382.00
2023-05-25T05:15:15.006Z,95384.00
2023-05-25T05:16:15.009Z,95384.00
2023-05-25T05:17:15.030Z,95386.00
2023-05-25T05:18:15.025Z,95384.00
2023-05-25T05:19:14.985Z,95388.00
2023-05-25T05:20:15.027Z,95388.00
2023-05-25T05:21:14.999Z,95390.00
2023-05-25T05:22:15.007Z,95394.00
2023-05-25T05:23:15.015Z,95394.00
2023-05-25T05:24:14.993Z,95396.00
2023-05-25T05:25:14.980Z,95396.00
2023-05-25T05:26:14.990Z,95396.00
2023-05-25T05:27:14.974Z,95399.00
2023-05-25T05:28:15.058Z,95399.00
2023-05-25T05:29:14.963Z,95405.00
2023-05-25T05:30:15.019Z,95405.00
2023-05-25T05:31:15.048Z,95403.00
2023-05-25T05:32:15.072Z,95407.00
2023-05-25T05:33:15.703Z,95407.00
2023-05-25T05:34:15.157Z,95405.00
2023-05-25T05:35:15.201Z,95405.00
2023-05-25T05:36:15.187Z,95407.00
2023-05-25T05:37:15.286Z,95407.00
2023-05-25T05:38:15.285Z,95411.00
2023-05-25T05:39:15.309Z,95413.00
2023-05-25T05:40:15.356Z,95413.00
2023-05-25T05:41:15.412Z,95413.00
2023-05-25T05:42:15.443Z,95415.00
2023-05-25T05:43:15.638Z,95415.00
2023-05-25T05:44:15.525Z,95417.00
2023-05-25T05:45:22.576Z,95417.00
2023-05-25T05:46:15.630Z,95419.00
2023-05-25T05:47:15.550Z,95421.00
2023-05-25T05:48:15.546Z,95423.00
2023-05-25T05:49:15.540Z,95427.00
2023-05-25T05:50:15.512Z,95429.00
2023-05-25T05:51:15.513Z,95429.00
2023-05-25T05:52:15.521Z,95431.00
2023-05-25T05:53:15.634Z,95433.00
2023-05-25T05:54:15.531Z,95433.00
2023-05-25T05:55:15.482Z,95431.00
2023-05-25T05:56:15.483Z,95431.00
2023-05-25T05:57:15.502Z,95431.00
2023-05-25T05:58:15.502Z,95433.00
2023-05-25T05:59:15.416Z,95433.00
2023-05-25T06:00:15.432Z,95431.00
2023-05-25T06:01:15.435Z,95429.00
2023-05-25T06:02:15.434Z,95429.00
2023-05-25T06:03:15.455Z,95427.00
2023-05-25T06:04:15.408Z,95429.00
2023-05-25T06:05:15.435Z,95429.00
2023-05-25T06:06:15.493Z,95427.00
2023-05-25T06:07:15.393Z,95427.00
2023-05-25T06:08:15.589Z,95425.00
2023-05-25T06:09:15.399Z,95429.00
2023-05-25T06:10:15.364Z,95431.00
2023-05-25T06:11:15.385Z,95429.00
2023-05-25T06:12:15.333Z,95425.00
2023-05-25T06:13:15.605Z,95423.00
2023-05-25T06:14:15.338Z,95421.00
2023-05-25T06:15:15.412Z,95423.00
2023-05-25T06:16:15.466Z,95423.00
2023-05-25T06:17:16.346Z,95421.00
2023-05-25T06:18:15.373Z,95423.00
2023-05-25T06:19:15.328Z,95423.00
2023-05-25T06:20:15.427Z,95421.00
2023-05-25T06:21:15.314Z,95421.00
2023-05-25T06:22:15.348Z,95421.00
2023-05-25T06:23:15.284Z,95421.00
2023-05-25T06:24:15.308Z,95421.00
2023-05-25T06:25:15.278Z,95423.00
2023-05-25T06:26:15.273Z,95423.00
2023-05-25T06:27:15.284Z,95423.00
2023-05-25T06:28:15.292Z,95425.00
2023-05-25T06:29:17.046Z,95427.00
2023-05-25T06:30:15.229Z,95423.00
2023-05-25T06:31:15.242Z,95429.00
2023-05-25T06:32:15.297Z,95427.00
2023-05-25T06:33:15.223Z,95429.00
2023-05-25T06:34:15.275Z,95431.00
2023-05-25T06:35:15.329Z,95431.00
2023-05-25T06:36:15.732Z,95431.00
2023-05-25T06:37:15.487Z,95431.00
2023-05-25T06:38:15.527Z,95429.00
2023-05-25T06:39:15.556Z,95431.00
2023-05-25T06:40:15.598Z,95431.00
2023-05-25T06:41:15.650Z,95431.00
2023-05-25T06:42:15.723Z,95433.00
2023-05-25T06:43:15.802Z,95433.00
2023-05-25T06:44:15.789Z,95433.00
2023-05-25T06:45:15.863Z,95435.00
2023-05-25T06:46:15.912Z,95435.00
2023-05-25T06:47:15.953Z,95441.00
2023-05-25T06:48:16.011Z,95439.00
2023-05-25T06:49:15.941Z,95439.00
2023-05-25T06:50:15.992Z,95439.00
2023-05-25T06:51:16.030Z,95437.00
2023-05-25T06:52:16.023Z,95441.00
2023-05-25T06:53:16.092Z,95441.00
2023-05-25T06:54:16.075Z,95441.00
2023-05-25T06:55:16.167Z,95437.00
2023-05-25T06:56:16.201Z,95439.00
2023-05-25T06:57:16.211Z,95435.00
2023-05-25T06:58:16.239Z,95433.00
2023-05-25T06:59:16.268Z,95433.00
2023-05-25T07:00:16.344Z,95435.00
2023-05-25T07:01:16.380Z,95437.00
2023-05-25T07:02:16.408Z,95435.00
2023-05-25T07:03:16.426Z,95435.00
2023-05-25T07:04:16.590Z,95441.00
2023-05-25T07:05:16.573Z,95439.00
2023-05-25T07:06:16.553Z,95443.00
2023-05-25T07:07:17.140Z,95443.00
2023-05-25T07:08:16.664Z,95441.00
2023-05-25T07:09:16.688Z,95450.00
2023-05-25T07:10:16.710Z,95452.00
2023-05-25T07:11:16.720Z,95443.00
2023-05-25T07:12:16.724Z,95450.00
2023-05-25T07:13:16.783Z,95450.00
2023-05-25T07:14:16.788Z,95450.00
2023-05-25T07:15:16.790Z,95450.00
2023-05-25T07:16:16.871Z,95452.00
2023-05-25T07:17:16.879Z,95450.00
2023-05-25T07:18:16.836Z,95452.00
2023-05-25T07:19:16.840Z,95452.00
2023-05-25T07:20:16.896Z,95450.00
2023-05-25T07:21:16.883Z,95452.00
2023-05-25T07:22:16.932Z,95452.00
2023-05-25T07:23:16.967Z,95450.00
2023-05-25T07:24:17.148Z,95450.00
2023-05-25T07:25:17.077Z,95443.00
2023-05-25T07:26:17.055Z,95443.00
2023-05-25T07:27:17.147Z,95450.00
2023-05-25T07:28:17.176Z,95443.00
2023-05-25T07:29:17.676Z,95450.00
2023-05-25T07:30:17.326Z,95450.00
2023-05-25T07:31:17.440Z,95443.00
2023-05-25T07:32:17.431Z,95439.00
2023-05-25T07:33:17.497Z,95441.00
2023-05-25T07:34:17.564Z,95439.00
2023-05-25T07:35:18.162Z,95439.00
2023-05-25T07:36:17.650Z,95437.00
2023-05-25T07:37:17.734Z,95439.00
2023-05-25T07:38:17.841Z,95441.00
2023-05-25T07:39:17.860Z,95441.00
2023-05-25T07:40:17.882Z,95441.00
2023-05-25T07:41:17.922Z,95441.00
2023-05-25T07:42:17.893Z,95441.00
2023-05-25T07:43:17.919Z,95443.00
2023-05-25T07:44:17.898Z,95450.00
2023-05-25T07:45:17.945Z,95450.00
2023-05-25T07:46:17.973Z,95456.00
2023-05-25T07:47:17.971Z,95456.00
2023-05-25T07:48:18.033Z,95456.00
2023-05-25T07:49:18.028Z,95458.00
2023-05-25T07:50:18.109Z,95454.00
2023-05-25T07:51:18.237Z,95456.00
2023-05-25T07:52:18.231Z,95450.00
2023-05-25T07:53:18.236Z,95450.00
2023-05-25T07:54:18.272Z,95452.00
2023-05-25T07:55:18.357Z,95452.00
2023-05-25T07:56:18.258Z,95454.00
2023-05-25T07:57:18.272Z,95454.00
2023-05-25T07:58:18.286Z,95452.00
2023-05-25T07:59:18.285Z,95450.00
2023-05-25T08:00:18.297Z,95450.00
2023-05-25T08:01:18.281Z,95443.00
2023-05-25T08:02:18.361Z,95441.00
2023-05-25T08:03:18.403Z,95439.00
2023-05-25T08:04:18.372Z,95439.00
2023-05-25T08:05:18.478Z,95443.00
2023-05-25T08:06:18.348Z,95437.00
2023-05-25T08:07:18.446Z,95441.00
2023-05-25T08:08:18.408Z,95437.00
2023-05-25T08:09:18.398Z,95441.00
2023-05-25T08:10:18.418Z,95439.00
2023-05-25T08:11:18.463Z,95441.00
2023-05-25T08:13:18.453Z,95441.00
2023-05-25T08:14:18.429Z,95443.00
2023-05-25T08:15:18.474Z,95441.00
2023-05-25T08:16:19.089Z,95441.00
2023-05-25T08:17:18.537Z,95439.00
2023-05-25T08:18:18.401Z,95441.00
2023-05-25T08:19:18.412Z,95437.00
2023-05-25T08:20:18.648Z,95450.00
2023-05-25T08:21:18.394Z,95439.00
2023-05-25T08:22:18.405Z,95443.00
2023-05-25T08:23:18.369Z,95441.00
2023-05-25T08:24:18.362Z,95450.00
2023-05-25T08:25:18.397Z,95441.00
2023-05-25T08:26:34.848Z,95443.00
2023-05-25T08:27:19.339Z,95443.00
2023-05-25T08:28:18.326Z,95441.00
2023-05-25T08:29:18.352Z,95441.00
2023-05-25T08:30:18.669Z,95443.00
2023-05-25T08:31:18.318Z,95456.00
2023-05-25T08:32:18.301Z,95450.00
2023-05-25T08:33:18.326Z,95450.00
2023-05-25T08:34:18.283Z,95450.00
2023-05-25T08:35:18.325Z,95450.00
2023-05-25T08:36:18.325Z,95450.00
2023-05-25T08:37:18.280Z,95456.00
2023-05-25T08:38:18.275Z,95458.00
2023-05-25T08:39:18.369Z,95460.00
2023-05-25T08:40:18.417Z,95454.00
2023-05-25T08:41:18.494Z,95454.00
2023-05-25T08:42:18.614Z,95456.00
2023-05-25T08:43:18.622Z,95454.00
2023-05-25T08:44:18.671Z,95454.00
2023-05-25T08:45:33.594Z,95450.00
2023-05-25T08:46:19.699Z,95452.00
2023-05-25T08:47:18.684Z,95452.00
2023-05-25T08:48:35.618Z,95450.00
2023-05-25T08:49:19.674Z,95441.00
2023-05-25T08:50:19.158Z,95439.00
2023-05-25T08:51:18.684Z,95439.00
2023-05-25T08:52:18.652Z,95433.00
2023-05-25T08:53:18.652Z,95435.00
2023-05-25T08:54:18.653Z,95433.00
2023-05-25T08:55:18.639Z,95427.00
2023-05-25T08:56:18.607Z,95423.00
2023-05-25T08:57:18.607Z,95427.00
2023-05-25T08:58:18.603Z,95425.00
2023-05-25T08:59:18.575Z,95421.00
2023-05-25T09:00:18.639Z,95419.00
2023-05-25T09:01:18.570Z,95423.00
2023-05-25T09:02:18.612Z,95419.00
2023-05-25T09:03:18.729Z,95417.00
2023-05-25T09:04:18.583Z,95419.00
2023-05-25T09:05:19.296Z,95419.00
2023-05-25T09:06:18.516Z,95421.00
2023-05-25T09:07:18.538Z,95419.00
2023-05-25T09:08:18.583Z,95415.00
2023-05-25T09:09:18.547Z,95419.00
2023-05-25T09:10:18.646Z,95417.00
2023-05-25T09:11:34.829Z,95417.00
2023-05-25T09:12:19.548Z,95417.00
2023-05-25T09:13:22.446Z,95419.00
2023-05-25T09:14:19.000Z,95419.00
2023-05-25T09:15:19.055Z,95421.00
2023-05-25T09:16:18.684Z,95425.00
2023-05-25T09:17:18.522Z,95423.00
2023-05-25T09:18:18.533Z,95429.00
2023-05-25T09:19:18.517Z,95427.00
2023-05-25T09:20:18.555Z,95425.00
2023-05-25T09:21:18.659Z,95425.00
2023-05-25T09:22:18.522Z,95427.00
2023-05-25T09:23:18.468Z,95427.00
2023-05-25T09:24:18.457Z,95425.00
2023-05-25T09:25:18.482Z,95423.00
2023-05-25T09:26:18.650Z,95425.00
2023-05-25T09:27:18.497Z,95423.00
2023-05-25T09:28:27.061Z,95425.00
2023-05-25T09:29:19.463Z,95423.00
2023-05-25T09:30:18.446Z,95421.00
2023-05-25T09:31:18.724Z,95421.00
2023-05-25T09:32:18.529Z,95419.00
2023-05-25T09:33:18.422Z,95425.00
2023-05-25T09:34:18.415Z,95421.00
2023-05-25T09:35:18.395Z,95417.00
2023-05-25T09:36:18.511Z,95421.00
2023-05-25T09:37:18.525Z,95423.00
2023-05-25T09:38:18.564Z,95425.00
2023-05-25T09:39:18.554Z,95423.00
2023-05-25T09:40:18.444Z,95423.00
2023-05-25T09:41:19.206Z,95423.00
2023-05-25T09:42:18.376Z,95421.00
2023-05-25T09:43:32.505Z,95419.00
2023-05-25T09:44:19.363Z,95417.00
2023-05-25T09:45:18.322Z,95415.00
2023-05-25T09:46:20.250Z,95417.00
2023-05-25T09:47:18.366Z,95415.00
2023-05-25T09:48:18.324Z,95411.00
2023-05-25T09:49:18.321Z,95411.00
2023-05-25T09:50:18.279Z,95411.00
2023-05-25T09:51:18.280Z,95409.00
2023-05-25T09:52:18.681Z,95409.00
2023-05-25T09:53:18.297Z,95411.00
2023-05-25T09:54:18.267Z,95409.00
2023-05-25T09:55:18.262Z,95409.00
2023-05-25T09:56:18.326Z,95411.00
2023-05-25T09:57:18.260Z,95407.00
2023-05-25T09:58:18.256Z,95405.00
2023-05-25T09:59:18.245Z,95409.00
2023-05-25T10:00:18.246Z,95409.00
2023-05-25T10:01:18.265Z,95403.00
2023-05-25T10:02:18.260Z,95403.00
2023-05-25T10:03:18.246Z,95401.00
2023-05-25T10:04:18.235Z,95397.00
2023-05-25T10:05:18.197Z,95397.00
2023-05-25T10:06:18.240Z,95397.00
2023-05-25T10:07:18.161Z,95394.00
2023-05-25T10:08:18.201Z,95397.00
2023-05-25T10:09:18.290Z,95394.00
2023-05-25T10:10:18.363Z,95394.00
2023-05-25T10:11:18.480Z,95396.00
2023-05-25T10:12:18.914Z,95392.00
2023-05-25T10:13:18.555Z,95392.00
2023-05-25T10:14:18.706Z,95390.00
2023-05-25T10:15:20.292Z,95388.00
2023-05-25T10:16:19.840Z,95390.00
2023-05-25T10:17:19.221Z,95388.00
2023-05-25T10:18:20.190Z,95390.00
2023-05-25T10:19:18.912Z,95390.00
2023-05-25T10:20:19.053Z,95390.00
2023-05-25T10:21:19.060Z,95390.00
2023-05-25T10:22:19.185Z,95392.00
2023-05-25T10:23:19.145Z,95390.00
2023-05-25T10:24:19.246Z,95388.00
2023-05-25T10:25:19.282Z,95386.00
2023-05-25T10:26:19.327Z,95384.00
2023-05-25T10:28:20.361Z,95376.00
2023-05-25T10:29:19.364Z,95376.00
2023-05-25T10:30:19.369Z,95378.00
2023-05-25T10:31:19.398Z,95376.00
2023-05-25T10:32:19.328Z,95376.00
2023-05-25T10:33:19.391Z,95376.00
2023-05-25T10:34:19.303Z,95378.00
2023-05-25T10:35:19.319Z,95380.00
2023-05-25T10:36:19.300Z,95380.00
2023-05-25T10:37:19.697Z,95382.00
2023-05-25T10:38:19.369Z,95376.00
2023-05-25T10:39:19.412Z,95376.00
2023-05-25T10:40:19.504Z,95378.00
2023-05-25T10:41:19.609Z,95378.00
2023-05-25T10:42:19.703Z,95376.00
2023-05-25T10:43:19.662Z,95376.00
2023-05-25T10:44:19.729Z,95378.00
2023-05-25T10:45:19.777Z,95378.00
2023-05-25T10:46:19.874Z,95376.00
2023-05-25T10:47:20.259Z,95372.00
2023-05-25T10:48:19.977Z,95372.00
2023-05-25T10:49:20.021Z,95368.00
2023-05-25T10:50:20.124Z,95372.00
2023-05-25T10:51:20.146Z,95370.00
2023-05-25T10:52:20.221Z,95366.00
2023-05-25T10:53:20.314Z,95364.00
2023-05-25T10:54:20.352Z,95368.00
2023-05-25T10:55:20.402Z,95364.00
2023-05-25T10:56:20.472Z,95364.00
2023-05-25T10:57:20.529Z,95362.00
2023-05-25T10:58:20.553Z,95358.00
2023-05-25T10:59:20.560Z,95358.00
2023-05-25T11:00:20.624Z,95354.00
2023-05-25T11:01:20.790Z,95354.00
2023-05-25T11:02:20.768Z,95354.00
2023-05-25T11:03:20.806Z,95350.00
2023-05-25T11:04:20.841Z,95350.00
2023-05-25T11:05:20.815Z,95347.00
2023-05-25T11:06:20.821Z,95343.00
2023-05-25T11:07:20.867Z,95345.00
2023-05-25T11:08:21.207Z,95343.00
2023-05-25T11:09:20.941Z,95339.00
2023-05-25T11:10:21.007Z,95337.00
2023-05-25T11:11:21.035Z,95339.00
2023-05-25T11:12:21.320Z,95335.00
2023-05-25T11:13:21.109Z,95335.00
2023-05-25T11:14:21.156Z,95331.00
2023-05-25T11:15:21.210Z,95331.00
2023-05-25T11:16:21.300Z,95331.00
2023-05-25T11:17:21.349Z,95327.00
2023-05-25T11:18:21.719Z,95331.00
2023-05-25T11:19:21.395Z,95325.00
2023-05-25T11:20:21.431Z,95321.00
2023-05-25T11:21:21.438Z,95321.00
2023-05-25T11:22:21.476Z,95321.00
2023-05-25T11:23:21.717Z,95317.00
2023-05-25T11:24:21.530Z,95317.00
2023-05-25T11:25:21.544Z,95315.00
2023-05-25T11:26:21.566Z,95313.00
2023-05-25T11:27:21.608Z,95311.00
2023-05-25T11:28:21.573Z,95311.00
2023-05-25T11:29:21.603Z,95310.00
2023-05-25T11:30:21.623Z,95310.00
2023-05-25T11:31:21.654Z,95308.00
2023-05-25T11:32:21.639Z,95310.00
2023-05-25T11:33:21.711Z,95306.00
2023-05-25T11:34:21.652Z,95304.00
2023-05-25T11:35:21.664Z,95304.00
2023-05-25T11:36:21.721Z,95300.00
2023-05-25T11:37:21.846Z,95300.00
2023-05-25T11:38:21.831Z,95298.00
2023-05-25T11:39:23.162Z,95296.00
2023-05-25T11:40:21.935Z,95296.00
2023-05-25T11:41:21.951Z,95296.00
2023-05-25T11:42:22.071Z,95294.00
2023-05-25T11:43:22.071Z,95292.00
2023-05-25T11:44:22.120Z,95298.00
2023-05-25T11:45:22.139Z,95298.00
2023-05-25T11:46:22.243Z,95296.00